createdAt,value
2018-08-20T00:00:27.073Z,95325.61
2018-08-20T00:03:37.404Z,95317.25
2018-08-20T00:06:57.599Z,95317.30
2018-08-20T00:10:02.107Z,95318.59
2018-08-20T00:13:06.599Z,95310.69
2018-08-20T00:16:11.098Z,95316.80
2018-08-20T00:19:15.515Z,95315.35
2018-08-20T00:22:20.410Z,95314.97
2018-08-20T00:25:25.012Z,95312.10
2018-08-20T00:28:30.209Z,95314.36
2018-08-20T00:31:35.489Z,95316.38
2018-08-20T00:34:42.487Z,95318.18
2018-08-20T00:37:50.619Z,95318.92
2018-08-20T00:40:55.071Z,95320.16
2018-08-20T00:44:00.197Z,95320.30
2018-08-20T00:47:04.601Z,95322.76
2018-08-20T00:50:10.642Z,95322.22
2018-08-20T00:53:15.162Z,95319.97
2018-08-20T00:56:20.708Z,95319.97
2018-08-20T00:59:25.213Z,95320.17
2018-08-20T01:02:31.131Z,95323.78
2018-08-20T01:05:36.109Z,95328.45
2018-08-20T01:08:40.634Z,95323.29
2018-08-20T01:11:45.649Z,95327.34
2018-08-20T01:14:50.794Z,95333.02
2018-08-20T01:17:56.954Z,95330.72
2018-08-20T01:21:01.510Z,95334.73
2018-08-20T01:24:06.018Z,95338.50
2018-08-20T01:27:15.503Z,95338.95
2018-08-20T01:30:20.234Z,95343.48
2018-08-20T01:33:24.757Z,95339.20
2018-08-20T01:36:29.459Z,95338.69
2018-08-20T01:39:33.829Z,95340.97
2018-08-20T01:42:38.233Z,95346.80
2018-08-20T01:45:42.647Z,95347.70
2018-08-20T01:48:47.147Z,95346.61
2018-08-20T01:51:51.745Z,95350.48
2018-08-20T01:54:56.164Z,95349.93
2018-08-20T01:58:00.990Z,95347.34
2018-08-20T02:01:30.355Z,95351.14
2018-08-20T02:04:34.759Z,95348.41
2018-08-20T02:07:39.235Z,95349.36
2018-08-20T02:10:43.695Z,95350.52
2018-08-20T02:13:48.079Z,95348.54
2018-08-20T02:16:52.481Z,95351.44
2018-08-20T02:19:57.079Z,95341.80
2018-08-20T02:23:01.492Z,95340.23
2018-08-20T02:26:06.209Z,95345.55
2018-08-20T02:29:10.640Z,95341.73
2018-08-20T02:32:15.070Z,95341.45
2018-08-20T02:35:19.453Z,95340.88
2018-08-20T02:38:23.864Z,95337.13
2018-08-20T02:41:28.274Z,95342.70
2018-08-20T02:44:32.700Z,95339.70
2018-08-20T02:47:37.731Z,95335.27
2018-08-20T02:50:42.205Z,95331.41
2018-08-20T02:53:46.617Z,95330.98
2018-08-20T02:56:51.069Z,95331.08
2018-08-20T02:59:55.553Z,95330.09
2018-08-20T03:03:03.142Z,95334.27
2018-08-20T03:06:07.566Z,95339.06
2018-08-20T03:09:13.736Z,95333.36
2018-08-20T03:12:18.313Z,95334.31
2018-08-20T03:15:22.732Z,95340.05
2018-08-20T03:18:27.202Z,95339.70
2018-08-20T03:21:32.169Z,95335.60
2018-08-20T03:24:36.724Z,95330.59
2018-08-20T03:27:41.439Z,95333.27
2018-08-20T03:30:45.977Z,95335.58
2018-08-20T03:33:50.674Z,95338.71
2018-08-20T03:36:55.457Z,95337.23
2018-08-20T03:40:00.014Z,95341.31
2018-08-20T03:43:04.418Z,95335.31
2018-08-20T03:46:09.414Z,95340.75
2018-08-20T03:49:13.846Z,95343.78
2018-08-20T03:52:18.338Z,95343.27
2018-08-20T03:55:23.447Z,95339.11
2018-08-20T03:58:27.962Z,95340.10
2018-08-20T04:01:32.382Z,95343.98
2018-08-20T04:04:37.031Z,95345.45
2018-08-20T04:07:41.388Z,95347.84
2018-08-20T04:10:46.119Z,95348.62
2018-08-20T04:13:50.697Z,95349.70
2018-08-20T04:16:56.275Z,95344.55
2018-08-20T04:20:02.277Z,95346.64
2018-08-20T04:23:06.830Z,95353.05
2018-08-20T04:26:11.317Z,95354.59
2018-08-20T04:29:15.851Z,95357.69
2018-08-20T04:32:20.737Z,95357.27
2018-08-20T04:35:25.241Z,95357.15
2018-08-20T04:38:29.702Z,95362.78
2018-08-20T04:41:35.656Z,95359.66
2018-08-20T04:44:40.436Z,95361.25
2018-08-20T04:47:44.958Z,95364.92
2018-08-20T04:50:49.704Z,95366.45
2018-08-20T04:53:54.377Z,95361.25
2018-08-20T04:56:59.165Z,95354.82
2018-08-20T05:00:03.753Z,95357.55
2018-08-20T05:03:11.990Z,95363.34
2018-08-20T05:06:16.677Z,95368.04
2018-08-20T05:09:21.204Z,95370.89
2018-08-20T05:12:25.992Z,95375.97
2018-08-20T05:15:30.404Z,95369.20
2018-08-20T05:18:34.776Z,95372.34
2018-08-20T05:21:39.511Z,95373.59
2018-08-20T05:24:44.660Z,95374.52
2018-08-20T05:27:49.092Z,95377.70
2018-08-20T05:30:53.770Z,95378.28
2018-08-20T05:33:58.921Z,95371.20
2018-08-20T05:37:03.566Z,95376.28
2018-08-20T05:40:08.080Z,95372.05
2018-08-20T05:43:12.975Z,95373.70
2018-08-20T05:46:17.448Z,95376.56
2018-08-20T05:49:22.042Z,95379.53
2018-08-20T05:52:26.685Z,95379.43
2018-08-20T05:55:32.127Z,95385.28
2018-08-20T05:58:36.497Z,95385.59
2018-08-20T06:01:41.079Z,95387.98
2018-08-20T06:04:45.705Z,95391.37
2018-08-20T06:07:50.170Z,95388.88
2018-08-20T06:10:54.495Z,95393.92
2018-08-20T06:13:58.882Z,95387.61
2018-08-20T06:17:03.369Z,95389.06
2018-08-20T06:20:16.387Z,95392.66
2018-08-20T06:23:20.764Z,95387.73
2018-08-20T06:26:25.927Z,95392.95
2018-08-20T06:29:30.351Z,95391.73
2018-08-20T06:32:35.115Z,95390.50
2018-08-20T06:35:40.380Z,95391.59
2018-08-20T06:38:44.732Z,95390.54
2018-08-20T06:41:49.111Z,95384.83
2018-08-20T06:44:53.701Z,95386.52
2018-08-20T06:47:58.205Z,95384.17
2018-08-20T06:51:02.658Z,95386.05
2018-08-20T06:54:07.421Z,95386.12
2018-08-20T06:57:11.833Z,95384.50
2018-08-20T07:00:16.467Z,95385.25
2018-08-20T07:03:20.957Z,95386.53
2018-08-20T07:06:25.632Z,95383.80
2018-08-20T07:09:30.121Z,95385.38
2018-08-20T07:12:34.652Z,95383.77
2018-08-20T07:15:39.904Z,95384.08
2018-08-20T07:18:44.642Z,95382.16
2018-08-20T07:21:49.547Z,95383.41
2018-08-20T07:24:54.246Z,95383.73
2018-08-20T07:27:58.705Z,95391.53
2018-08-20T07:31:03.414Z,95394.79
2018-08-20T07:34:07.910Z,95390.19
2018-08-20T07:37:19.126Z,95387.50
2018-08-20T07:40:23.460Z,95386.76
2018-08-20T07:43:28.401Z,95389.13
2018-08-20T07:46:33.214Z,95391.93
2018-08-20T07:49:37.619Z,95394.45
2018-08-20T07:52:41.977Z,95397.80
2018-08-20T07:55:46.573Z,95399.09
2018-08-20T07:58:50.873Z,95400.84
2018-08-20T08:01:55.602Z,95400.70
2018-08-20T08:05:00.049Z,95402.53
2018-08-20T08:08:04.639Z,95402.40
2018-08-20T08:11:09.092Z,95408.89
2018-08-20T08:14:14.071Z,95400.95
2018-08-20T08:17:18.468Z,95402.66
2018-08-20T08:20:23.209Z,95394.83
2018-08-20T08:23:27.653Z,95395.73
2018-08-20T08:26:33.822Z,95398.59
2018-08-20T08:29:38.317Z,95394.02
2018-08-20T08:32:42.745Z,95393.83
2018-08-20T08:35:47.184Z,95391.87
2018-08-20T08:38:51.909Z,95390.86
2018-08-20T08:41:56.549Z,95388.48
2018-08-20T08:45:01.035Z,95389.34
2018-08-20T08:48:06.633Z,95389.86
2018-08-20T08:51:10.981Z,95386.79
2018-08-20T08:54:15.568Z,95390.19
2018-08-20T08:57:20.337Z,95387.55
2018-08-20T09:00:24.812Z,95389.20
2018-08-20T09:03:31.654Z,95384.53
2018-08-20T09:06:36.408Z,95385.05
2018-08-20T09:09:40.904Z,95376.78
2018-08-20T09:12:45.298Z,95381.87
2018-08-20T09:15:50.174Z,95376.63
2018-08-20T09:18:54.632Z,95378.64
2018-08-20T09:21:59.093Z,95377.32
2018-08-20T09:25:03.625Z,95368.88
2018-08-20T09:28:08.230Z,95369.83
2018-08-20T09:31:12.660Z,95370.41
2018-08-20T09:34:17.785Z,95355.56
2018-08-20T09:37:22.346Z,95359.27
2018-08-20T09:40:27.265Z,95351.89
2018-08-20T09:43:31.793Z,95356.72
2018-08-20T09:46:36.313Z,95359.17
2018-08-20T09:49:41.373Z,95359.94
2018-08-20T09:52:46.568Z,95362.58
2018-08-20T09:55:51.262Z,95355.33
2018-08-20T09:58:56.244Z,95352.58
2018-08-20T10:02:00.957Z,95352.02
2018-08-20T10:05:05.856Z,95348.66
2018-08-20T10:08:10.707Z,95348.84
2018-08-20T10:11:15.227Z,95348.14
2018-08-20T10:14:19.972Z,95342.44
2018-08-20T10:17:24.800Z,95340.68
2018-08-20T10:20:29.253Z,95347.20
2018-08-20T10:23:33.973Z,95339.33
2018-08-20T10:26:38.744Z,95339.89
2018-08-20T10:29:43.921Z,95347.88
2018-08-20T10:32:48.368Z,95340.48
2018-08-20T10:35:54.161Z,95335.78
2018-08-20T10:38:58.604Z,95339.98
2018-08-20T10:42:02.972Z,95337.08
2018-08-20T10:45:16.330Z,95338.89
2018-08-20T10:48:21.948Z,95332.58
2018-08-20T10:51:26.613Z,95332.23
2018-08-20T10:54:32.065Z,95326.36
2018-08-20T10:57:36.688Z,95332.77
2018-08-20T11:00:41.391Z,95323.77
2018-08-20T11:03:48.657Z,95327.64
2018-08-20T11:06:54.571Z,95325.21
2018-08-20T11:10:00.120Z,95325.13
2018-08-20T11:13:05.065Z,95317.36
2018-08-20T11:16:09.456Z,95316.06
2018-08-20T11:19:14.063Z,95315.34
2018-08-20T11:22:18.770Z,95309.38
2018-08-20T11:25:23.345Z,95308.11
2018-08-20T11:28:28.027Z,95306.18
2018-08-20T11:31:32.706Z,95300.29
2018-08-20T11:34:38.058Z,95296.61
2018-08-20T11:37:42.690Z,95291.41
2018-08-20T11:40:47.456Z,95294.91
2018-08-20T11:43:51.846Z,95291.55
2018-08-20T11:46:56.889Z,95285.91
2018-08-20T11:50:01.961Z,95287.27
2018-08-20T11:53:07.120Z,95284.24
2018-08-20T11:56:11.565Z,95277.14
2018-08-20T11:59:15.972Z,95281.00
2018-08-20T12:02:20.605Z,95277.05
2018-08-20T12:05:25.089Z,95273.14
2018-08-20T12:08:30.358Z,95274.95
2018-08-20T12:11:34.917Z,95271.35
2018-08-20T12:14:39.375Z,95272.52
2018-08-20T12:17:43.883Z,95263.55
2018-08-20T12:20:48.402Z,95261.92
2018-08-20T12:23:52.760Z,95263.28
2018-08-20T12:26:57.220Z,95261.31
2018-08-20T12:30:01.746Z,95259.75
2018-08-20T12:33:06.129Z,95258.27
2018-08-20T12:36:10.536Z,95259.13
2018-08-20T12:39:15.009Z,95251.98
2018-08-20T12:42:19.893Z,95250.09
2018-08-20T12:45:24.351Z,95238.84
2018-08-20T12:48:29.888Z,95244.15
2018-08-20T12:51:34.403Z,95242.72
2018-08-20T12:54:38.842Z,95239.91
2018-08-20T12:57:44.043Z,95239.91
2018-08-20T13:00:48.453Z,95231.53
2018-08-20T13:03:52.867Z,95229.86
2018-08-20T13:06:57.245Z,95220.51
2018-08-20T13:10:01.741Z,95220.28
2018-08-20T13:13:06.207Z,95209.91
2018-08-20T13:16:10.948Z,95223.00
2018-08-20T13:19:15.295Z,95209.88
2018-08-20T13:22:20.271Z,95207.87
2018-08-20T13:25:24.913Z,95208.84
2018-08-20T13:28:30.720Z,95207.47
2018-08-20T13:31:35.372Z,95200.17
2018-08-20T13:34:40.079Z,95199.45
2018-08-20T13:37:44.811Z,95195.97
2018-08-20T13:40:49.237Z,95202.63
2018-08-20T13:43:54.451Z,95199.28
2018-08-20T13:46:59.026Z,95196.84
2018-08-20T13:50:12.603Z,95193.25
2018-08-20T13:53:17.649Z,95194.69
2018-08-20T13:56:22.162Z,95195.63
2018-08-20T13:59:27.861Z,95194.41
2018-08-20T14:02:32.342Z,95195.58
2018-08-20T14:05:37.461Z,95194.83
2018-08-20T14:08:42.092Z,95198.14
2018-08-20T14:11:47.199Z,95190.44
2018-08-20T14:14:51.642Z,95186.18
2018-08-20T14:17:56.059Z,95180.70
2018-08-20T14:21:09.365Z,95177.02
2018-08-20T14:24:14.047Z,95180.34
2018-08-20T14:27:18.479Z,95177.20
2018-08-20T14:30:22.948Z,95177.86
2018-08-20T14:33:27.769Z,95173.86
2018-08-20T14:36:32.435Z,95175.59
2018-08-20T14:39:37.042Z,95171.77
2018-08-20T14:42:42.517Z,95171.66
2018-08-20T14:45:52.181Z,95167.94
2018-08-20T14:48:56.649Z,95157.98
2018-08-20T14:52:01.642Z,95162.05
2018-08-20T14:55:06.547Z,95165.75
2018-08-20T14:58:11.453Z,95158.16
2018-08-20T15:01:16.234Z,95163.32
2018-08-20T15:04:21.113Z,95160.41
2018-08-20T15:07:25.728Z,95160.61
2018-08-20T15:10:30.230Z,95155.10
2018-08-20T15:13:37.973Z,95153.81
2018-08-20T15:16:42.488Z,95154.75
2018-08-20T15:19:47.029Z,95151.80
2018-08-20T15:22:52.633Z,95145.63
2018-08-20T15:25:57.756Z,95138.36
2018-08-20T15:29:02.588Z,95137.33
2018-08-20T15:32:07.157Z,95132.62
2018-08-20T15:35:11.730Z,95134.23
2018-08-20T15:38:16.170Z,95131.50
2018-08-20T15:41:20.914Z,95132.38
2018-08-20T15:44:25.846Z,95130.55
2018-08-20T15:47:30.586Z,95139.52
2018-08-20T15:50:35.106Z,95137.39
2018-08-20T15:53:39.734Z,95132.08
2018-08-20T15:56:44.369Z,95128.09
2018-08-20T15:59:50.092Z,95128.86
2018-08-20T16:02:55.290Z,95124.44
2018-08-20T16:06:01.072Z,95124.05
2018-08-20T16:09:09.522Z,95118.95
2018-08-20T16:12:14.650Z,95120.14
2018-08-20T16:15:19.215Z,95117.94
2018-08-20T16:18:23.666Z,95115.82
2018-08-20T16:21:29.062Z,95108.69
2018-08-20T16:24:34.081Z,95111.61
2018-08-20T16:27:38.680Z,95110.22
2018-08-20T16:30:43.125Z,95105.86
2018-08-20T16:33:48.065Z,95106.28
2018-08-20T16:36:53.613Z,95108.00
2018-08-20T16:39:58.450Z,95111.11
2018-08-20T16:43:04.233Z,95111.01
2018-08-20T16:46:09.404Z,95101.77
2018-08-20T16:49:14.154Z,95103.15
2018-08-20T16:52:18.888Z,95112.62
2018-08-20T16:55:23.310Z,95109.66
2018-08-20T16:58:28.905Z,95110.67
2018-08-20T17:01:35.300Z,95107.31
2018-08-20T17:04:42.397Z,95110.64
2018-08-20T17:07:47.553Z,95108.34
2018-08-20T17:10:52.730Z,95109.05
2018-08-20T17:13:57.770Z,95115.59
2018-08-20T17:17:04.184Z,95112.52
2018-08-20T17:20:10.778Z,95113.17
2018-08-20T17:23:23.695Z,95113.88
2018-08-20T17:26:28.322Z,95115.63
2018-08-20T17:29:32.742Z,95116.43
2018-08-20T17:32:37.782Z,95115.27
2018-08-20T17:35:43.362Z,95113.26
2018-08-20T17:38:48.316Z,95115.78
2018-08-20T17:41:56.071Z,95123.11
2018-08-20T17:45:01.764Z,95122.33
2018-08-20T17:48:08.129Z,95126.53
2018-08-20T17:51:15.685Z,95126.84
2018-08-20T17:54:20.426Z,95140.91
2018-08-20T17:57:25.623Z,95137.17
2018-08-20T18:00:41.614Z,95143.23
2018-08-20T18:03:46.161Z,95143.13
2018-08-20T18:06:55.207Z,95142.28
2018-08-20T18:09:59.836Z,95150.75
2018-08-20T18:13:04.393Z,95155.30
2018-08-20T18:16:11.770Z,95159.49
2018-08-20T18:19:16.879Z,95153.75
2018-08-20T18:22:21.639Z,95156.97
2018-08-20T18:25:30.128Z,95156.88
2018-08-20T18:28:45.896Z,95165.44
2018-08-20T18:32:02.049Z,95166.27
2018-08-20T18:35:07.429Z,95170.28
2018-08-20T18:38:11.862Z,95174.72
2018-08-20T18:41:16.679Z,95176.94
2018-08-20T18:44:23.249Z,95178.41
2018-08-20T18:47:27.832Z,95191.25
2018-08-20T18:50:32.486Z,95192.81
2018-08-20T18:53:37.411Z,95189.13
2018-08-20T18:56:44.769Z,95194.09
2018-08-20T18:59:49.787Z,95199.68
2018-08-20T19:02:59.847Z,95200.66
2018-08-20T19:06:05.904Z,95203.81
2018-08-20T19:09:10.630Z,95208.33
2018-08-20T19:12:15.567Z,95210.33
2018-08-20T19:15:36.997Z,95211.77
2018-08-20T19:18:41.897Z,95205.70
2018-08-20T19:21:46.768Z,95216.59
2018-08-20T19:24:51.253Z,95212.22
2018-08-20T19:27:56.537Z,95213.63
2018-08-20T19:31:01.318Z,95215.98
2018-08-20T19:34:07.106Z,95222.56
2018-08-20T19:37:12.313Z,95227.81
2018-08-20T19:40:19.478Z,95227.81
2018-08-20T19:43:25.067Z,95235.19
2018-08-20T19:46:34.868Z,95233.88
2018-08-20T19:49:39.565Z,95242.48
2018-08-20T19:53:20.432Z,95242.30
2018-08-20T19:56:25.442Z,95240.20
2018-08-20T19:59:35.812Z,95231.44
2018-08-20T20:02:44.037Z,95238.00
2018-08-20T20:05:48.733Z,95242.09
2018-08-20T20:08:53.475Z,95231.50
2018-08-20T20:11:59.154Z,95240.38
2018-08-20T20:15:04.799Z,95240.20
2018-08-20T20:18:11.145Z,95240.38
2018-08-20T20:21:17.031Z,95245.59
2018-08-20T20:24:22.426Z,95249.27
2018-08-20T20:27:27.145Z,95251.38
2018-08-20T20:30:32.493Z,95253.13
2018-08-20T20:33:37.830Z,95262.77
2018-08-20T20:36:43.144Z,95262.58
2018-08-20T20:40:02.591Z,95268.73
2018-08-20T20:43:07.926Z,95269.13
2018-08-20T20:46:13.298Z,95271.03
2018-08-20T20:49:18.346Z,95272.17
2018-08-20T20:52:23.742Z,95268.87
2018-08-20T20:55:28.947Z,95268.87
2018-08-20T20:58:39.045Z,95273.08
2018-08-20T21:01:43.545Z,95278.98
2018-08-20T21:04:48.745Z,95276.62
2018-08-20T21:07:53.508Z,95289.15
2018-08-20T21:10:59.114Z,95289.12
2018-08-20T21:14:03.905Z,95291.23
2018-08-20T21:17:08.344Z,95294.14
2018-08-20T21:20:13.204Z,95294.85
2018-08-20T21:23:17.849Z,95292.81
2018-08-20T21:26:23.809Z,95303.88
2018-08-20T21:29:28.532Z,95303.77
2018-08-20T21:32:33.794Z,95310.63
2018-08-20T21:35:38.656Z,95305.53
2018-08-20T21:38:44.014Z,95304.71
2018-08-20T21:41:48.698Z,95308.50
2018-08-20T21:44:53.677Z,95303.64
2018-08-20T21:47:58.559Z,95307.05
2018-08-20T21:51:08.832Z,95307.22
2018-08-20T21:54:14.254Z,95306.65
2018-08-20T21:57:18.830Z,95306.23
2018-08-20T22:00:24.777Z,95307.72
2018-08-20T22:03:31.211Z,95315.38
2018-08-20T22:06:35.641Z,95310.42
2018-08-20T22:09:40.405Z,95320.30
2018-08-20T22:12:45.607Z,95321.20
2018-08-20T22:16:07.797Z,95314.06
2018-08-20T22:19:12.635Z,95315.05
2018-08-20T22:22:22.858Z,95315.12
2018-08-20T22:25:27.858Z,95310.94
2018-08-20T22:28:33.988Z,95313.71
2018-08-20T22:31:42.722Z,95313.92
2018-08-20T22:34:47.293Z,95308.59
2018-08-20T22:37:52.428Z,95309.91
2018-08-20T22:40:56.897Z,95309.55
2018-08-20T22:44:01.496Z,95310.17
2018-08-20T22:47:05.958Z,95314.20
2018-08-20T22:50:10.876Z,95318.91
2018-08-20T22:53:15.382Z,95319.00
2018-08-20T22:56:25.930Z,95317.92
2018-08-20T22:59:30.493Z,95324.02
2018-08-20T23:02:34.933Z,95318.20
2018-08-20T23:05:39.464Z,95312.05
2018-08-20T23:08:44.150Z,95313.14
2018-08-20T23:11:48.901Z,95319.00
2018-08-20T23:14:53.359Z,95318.41
2018-08-20T23:17:57.725Z,95323.36
2018-08-20T23:21:02.228Z,95330.28
2018-08-20T23:24:07.456Z,95326.05
2018-08-20T23:27:12.680Z,95329.22
2018-08-20T23:30:17.127Z,95325.81
2018-08-20T23:33:21.675Z,95323.91
2018-08-20T23:36:26.044Z,95333.39
2018-08-20T23:39:30.445Z,95323.45
2018-08-20T23:42:34.985Z,95335.38
2018-08-20T23:45:39.430Z,95337.00
2018-08-20T23:48:44.107Z,95337.35
2018-08-20T23:51:49.249Z,95344.48
2018-08-20T23:54:53.650Z,95343.58
2018-08-20T23:57:58.081Z,95337.55
